Time;durP1;ratioP1;P1;durP2;ratioP2;P2;SDS_P1;SDS_P2;PMS_P1;PMS_P2;Temp;Humidity;BMP_temperature;BMP_pressure;BME280_temperature;BME280_humidity;BME280_pressure;Samples;Min_cycle;Max_cycle;Signal;HPM_P1;HPM_P2
2022/06/30 00:05:03;;;;;;;5.85;2.00;;;;;;;;;;4943159;28;20058;-87
2022/06/30 00:08:48;;;;;;;4.85;1.90;;;;;;;;;;4971686;28;20066;-86
2022/06/30 00:40:43;;;;;;;3.50;1.88;;;;;;;;;;4968721;28;20449;-84
2022/06/30 00:43:25;;;;;;;3.70;1.83;;;;;;;;;;4964302;28;20111;-84
2022/06/30 00:46:07;;;;;;;3.60;2.00;;;;;;;;;;4986036;28;20034;-85
2022/06/30 00:48:40;;;;;;;4.57;1.90;;;;;;;;;;4975503;28;20083;-85
2022/06/30 01:12:55;;;;;;;4.05;2.00;;;;;;;;;;4847505;29;20525;-83
2022/06/30 01:43:06;;;;;;;4.03;2.10;;;;;;;;;;4983846;28;20043;-84
2022/06/30 01:45:39;;;;;;;5.13;2.25;;;;;;;;;;4969973;28;20539;-84
2022/06/30 01:48:14;;;;;;;4.65;2.40;;;;;;;;;;4956113;28;20046;-84
2022/06/30 01:50:45;;;;;;;3.50;2.30;;;;;;;;;;4984735;28;20046;-84
2022/06/30 02:08:02;;;;;;;3.90;2.38;;;;;;;;;;5001226;28;20057;-91
2022/06/30 02:10:31;;;;;;;6.53;2.30;;;;;;;;;;4998941;28;20099;-84
2022/06/30 02:12:59;;;;;;;3.83;2.47;;;;;;;;;;4983456;28;20041;-84
2022/06/30 02:30:06;;;;;;;5.57;2.70;;;;;;;;;;4995358;28;20732;-91
2022/06/30 02:32:34;;;;;;;;;;;;;;;;;;4979456;28;20041;-84
2022/06/30 02:35:02;;;;;;;4.85;3.15;;;;;;;;;;4999881;28;19929;-83
2022/06/30 02:37:44;;;;;;;5.68;2.53;;;;;;;;;;4983596;28;20080;-83
2022/06/30 02:40:17;;;;;;;4.78;2.63;;;;;;;;;;4992484;28;20041;-84
2022/06/30 02:57:48;;;;;;;4.60;2.42;;;;;;;;;;4995142;28;20613;-92
2022/06/30 03:00:23;;;;;;;6.45;2.70;;;;;;;;;;4960741;28;20041;-85
2022/06/30 03:02:49;;;;;;;4.57;2.95;;;;;;;;;;4991352;28;20128;-83
2022/06/30 03:19:34;;;;;;;5.55;2.70;;;;;;;;;;4994795;28;20050;-90
2022/06/30 03:22:01;;;;;;;5.80;3.13;;;;;;;;;;5000736;28;20115;-83
2022/06/30 03:24:59;;;;;;;4.55;3.17;;;;;;;;;;4999628;28;20038;-84
2022/06/30 04:00:27;;;;;;;6.07;3.33;;;;;;;;;;5007783;28;20034;-84
2022/06/30 04:02:59;;;;;;;4.13;3.03;;;;;;;;;;4960314;28;20567;-84
2022/06/30 04:05:28;;;;;;;5.43;3.17;;;;;;;;;;4985254;28;20057;-84
2022/06/30 04:07:55;;;;;;;3.75;2.70;;;;;;;;;;4987209;28;20038;-84
2022/06/30 04:10:42;;;;;;;4.53;3.22;;;;;;;;;;4969534;28;20037;-84
2022/06/30 04:13:33;;;;;;;4.28;3.05;;;;;;;;;;4988283;28;20045;-84
2022/06/30 04:16:05;;;;;;;4.88;3.15;;;;;;;;;;4961924;28;20081;-84
2022/06/30 04:18:39;;;;;;;8.85;3.15;;;;;;;;;;5004225;28;20046;-83
2022/06/30 04:21:31;;;;;;;4.90;2.95;;;;;;;;;;5002975;28;20034;-84
2022/06/30 04:23:59;;;;;;;4.18;3.05;;;;;;;;;;5011525;28;20076;-84
2022/06/30 04:26:28;;;;;;;4.18;2.88;;;;;;;;;;5006966;28;20559;-84
2022/06/30 04:29:08;;;;;;;7.65;3.60;;;;;;;;;;4988012;28;20041;-84
2022/06/30 04:34:27;;;;;;;9.13;3.15;;;;;;;;;;5018263;28;20042;-84
2022/06/30 04:36:55;;;;;;;5.97;2.90;;;;;;;;;;5018110;28;20034;-84
2022/06/30 04:39:31;;;;;;;4.72;3.22;;;;;;;;;;5019949;28;20091;-84
2022/06/30 04:42:23;;;;;;;5.10;2.70;;;;;;;;;;5004499;28;20116;-84
2022/06/30 04:45:15;;;;;;;4.93;2.90;;;;;;;;;;4971337;28;20042;-83
2022/06/30 04:47:43;;;;;;;7.25;3.38;;;;;;;;;;4998657;28;20034;-83
2022/06/30 04:50:15;;;;;;;4.40;3.03;;;;;;;;;;5002126;28;20103;-84
2022/06/30 04:52:43;;;;;;;6.90;3.30;;;;;;;;;;5020328;28;20037;-83
2022/06/30 04:55:11;;;;;;;8.93;3.20;;;;;;;;;;5019393;28;20073;-83
2022/06/30 04:57:39;;;;;;;5.20;2.88;;;;;;;;;;4999826;28;20088;-83
2022/06/30 05:00:08;;;;;;;6.00;3.10;;;;;;;;;;5011780;28;20108;-83
2022/06/30 05:02:40;;;;;;;7.53;3.00;;;;;;;;;;5018966;28;20041;-83
2022/06/30 05:05:09;;;;;;;6.90;3.17;;;;;;;;;;5020068;28;20042;-83
2022/06/30 05:07:42;;;;;;;7.18;3.33;;;;;;;;;;4989317;28;20056;-84
2022/06/30 05:10:28;;;;;;;7.50;3.15;;;;;;;;;;5023566;28;20045;-83
2022/06/30 05:12:55;;;;;;;4.50;2.92;;;;;;;;;;5001143;28;20037;-81
2022/06/30 05:15:47;;;;;;;5.15;2.75;;;;;;;;;;5018531;28;20088;-81
2022/06/30 05:18:20;;;;;;;6.25;3.08;;;;;;;;;;5012511;28;20044;-81
2022/06/30 05:20:51;;;;;;;7.22;3.10;;;;;;;;;;5021194;28;20046;-81
2022/06/30 05:23:19;;;;;;;8.20;3.40;;;;;;;;;;5011269;28;20042;-81
2022/06/30 05:28:34;;;;;;;6.88;3.97;;;;;;;;;;5026479;28;20034;-81
2022/06/30 05:31:02;;;;;;;7.20;3.30;;;;;;;;;;5026842;28;20057;-82
2022/06/30 05:33:29;;;;;;;8.80;3.17;;;;;;;;;;5020164;28;20056;-83
2022/06/30 05:38:49;;;;;;;4.93;3.35;;;;;;;;;;5018060;28;20396;-81
2022/06/30 05:41:17;;;;;;;5.47;3.25;;;;;;;;;;4986913;28;20045;-81
2022/06/30 05:43:46;;;;;;;6.00;3.53;;;;;;;;;;5020882;28;20045;-82
2022/06/30 05:46:19;;;;;;;7.55;3.30;;;;;;;;;;5010459;28;20029;-81
2022/06/30 05:49:11;;;;;;;4.60;2.92;;;;;;;;;;5028754;28;20042;-80
2022/06/30 05:51:39;;;;;;;6.10;3.10;;;;;;;;;;5027206;28;20125;-80
2022/06/30 05:54:07;;;;;;;6.75;2.95;;;;;;;;;;5008714;28;20041;-80
2022/06/30 05:56:39;;;;;;;6.28;3.10;;;;;;;;;;5026369;28;20034;-80
2022/06/30 05:59:12;;;;;;;6.60;3.17;;;;;;;;;;5008443;28;20042;-81
2022/06/30 06:01:39;;;;;;;4.22;2.80;;;;;;;;;;5017790;28;20530;-81
2022/06/30 06:04:08;;;;;;;7.32;3.28;;;;;;;;;;4996852;28;20037;-81
2022/06/30 06:07:03;;;;;;;6.45;2.85;;;;;;;;;;4998278;28;20037;-82
2022/06/30 06:09:31;;;;;;;;;;;;;;;;;;5031830;28;20108;-82
2022/06/30 06:11:59;;;;;;;8.70;3.20;;;;;;;;;;5013915;28;19925;-81
2022/06/30 06:14:31;;;;;;;5.85;2.80;;;;;;;;;;5017755;28;20047;-82
2022/06/30 06:17:04;;;;;;;5.60;3.05;;;;;;;;;;5015941;28;20038;-81
2022/06/30 06:19:31;;;;;;;6.88;2.90;;;;;;;;;;5029201;28;20041;-82
2022/06/30 06:22:00;;;;;;;5.30;2.92;;;;;;;;;;5009836;28;20037;-82
2022/06/30 06:24:27;;;;;;;6.70;2.70;;;;;;;;;;5026160;28;20038;-82
2022/06/30 06:26:59;;;;;;;7.22;2.80;;;;;;;;;;5014423;28;20053;-81
2022/06/30 06:29:29;;;;;;;8.65;3.00;;;;;;;;;;5015369;28;20064;-82
2022/06/30 06:32:00;;;;;;;5.18;2.88;;;;;;;;;;5009485;28;20037;-82
2022/06/30 06:34:29;;;;;;;6.22;2.92;;;;;;;;;;5012396;28;20030;-82
2022/06/30 06:37:21;;;;;;;6.07;2.90;;;;;;;;;;4988964;28;20073;-82
2022/06/30 06:39:50;;;;;;;4.72;2.83;;;;;;;;;;4995528;28;20041;-82
2022/06/30 06:42:17;;;;;;;5.20;2.80;;;;;;;;;;5027831;28;20034;-81
2022/06/30 06:44:47;;;;;;;4.28;2.70;;;;;;;;;;5009630;28;20065;-82
2022/06/30 06:47:16;;;;;;;6.22;2.67;;;;;;;;;;5025721;28;20034;-82
2022/06/30 06:49:49;;;;;;;4.10;2.67;;;;;;;;;;4996173;28;20033;-82
2022/06/30 06:52:17;;;;;;;7.05;2.80;;;;;;;;;;5010401;28;20042;-82
2022/06/30 06:54:49;;;;;;;5.20;2.60;;;;;;;;;;5026113;28;20065;-82
2022/06/30 06:57:17;;;;;;;7.85;2.58;;;;;;;;;;4993670;28;20042;-82
2022/06/30 06:59:45;;;;;;;5.90;2.90;;;;;;;;;;5026195;28;20045;-82
2022/06/30 07:02:13;;;;;;;5.97;2.80;;;;;;;;;;5016857;28;20065;-82
2022/06/30 07:04:41;;;;;;;7.40;2.78;;;;;;;;;;4977279;28;20459;-82
2022/06/30 07:07:09;;;;;;;5.80;2.65;;;;;;;;;;4976844;28;20061;-82
2022/06/30 07:10:07;;;;;;;5.32;2.42;;;;;;;;;;5025714;28;20037;-82
2022/06/30 07:12:44;;;;;;;8.55;3.00;;;;;;;;;;5025283;28;20037;-82
2022/06/30 07:15:11;;;;;;;6.00;2.65;;;;;;;;;;5026109;28;20061;-82
2022/06/30 07:17:42;;;;;;;5.55;2.85;;;;;;;;;;5008923;28;20030;-81
2022/06/30 07:20:12;;;;;;;6.53;2.47;;;;;;;;;;5025150;28;20045;-83
2022/06/30 07:22:49;;;;;;;5.78;2.70;;;;;;;;;;5007810;28;20067;-82
2022/06/30 07:25:37;;;;;;;4.28;2.78;;;;;;;;;;4996718;28;20052;-84
2022/06/30 07:28:06;;;;;;;6.53;2.60;;;;;;;;;;4994524;28;20042;-84
2022/06/30 07:31:23;;;;;;;4.95;2.70;;;;;;;;;;5000744;28;20061;-84
2022/06/30 07:33:57;;;;;;;5.30;2.60;;;;;;;;;;5010842;28;20041;-84
2022/06/30 07:36:25;;;;;;;7.65;2.72;;;;;;;;;;5012938;28;20045;-84
2022/06/30 07:38:53;;;;;;;5.50;2.67;;;;;;;;;;5013543;28;20514;-84
2022/06/30 07:41:46;;;;;;;13.57;2.70;;;;;;;;;;5012873;28;20048;-84
2022/06/30 07:44:19;;;;;;;11.73;2.25;;;;;;;;;;5011929;28;20037;-84
2022/06/30 07:46:47;;;;;;;4.75;2.38;;;;;;;;;;5008647;28;20050;-84
2022/06/30 07:49:15;;;;;;;6.47;2.30;;;;;;;;;;4979979;28;20570;-84
2022/06/30 07:51:43;;;;;;;4.30;2.55;;;;;;;;;;5011444;28;20049;-84
2022/06/30 07:54:11;;;;;;;7.32;2.80;;;;;;;;;;5007785;28;20041;-84
2022/06/30 07:56:43;;;;;;;5.10;3.00;;;;;;;;;;4995899;28;20517;-84
2022/06/30 07:59:12;;;;;;;7.50;2.50;;;;;;;;;;5011906;28;20097;-84
2022/06/30 08:01:39;;;;;;;5.30;2.20;;;;;;;;;;5012136;28;20033;-84
2022/06/30 08:04:11;;;;;;;4.63;2.47;;;;;;;;;;5004010;28;20049;-84
2022/06/30 08:06:39;;;;;;;3.45;2.25;;;;;;;;;;4995624;28;20116;-84
2022/06/30 08:09:33;;;;;;;4.28;2.40;;;;;;;;;;5013241;28;20116;-84
2022/06/30 08:12:00;;;;;;;5.40;2.40;;;;;;;;;;5012381;28;20049;-84
2022/06/30 08:14:27;;;;;;;4.45;2.58;;;;;;;;;;5013975;28;20068;-84
2022/06/30 08:17:00;;;;;;;4.65;2.40;;;;;;;;;;5009878;28;20033;-84
2022/06/30 08:19:27;;;;;;;5.00;2.30;;;;;;;;;;5008347;28;20049;-84
2022/06/30 08:21:55;;;;;;;5.57;2.63;;;;;;;;;;5008765;28;20041;-84
2022/06/30 08:24:23;;;;;;;4.95;2.33;;;;;;;;;;5012251;28;20056;-84
2022/06/30 08:26:51;;;;;;;5.32;2.67;;;;;;;;;;4994469;28;20636;-84
2022/06/30 08:29:19;;;;;;;4.70;2.50;;;;;;;;;;4997203;28;20168;-84
2022/06/30 08:31:51;;;;;;;6.15;2.60;;;;;;;;;;5010828;28;20052;-84
2022/06/30 08:34:19;;;;;;;5.25;2.58;;;;;;;;;;4996880;28;20048;-84
2022/06/30 08:37:35;;;;;;;4.60;2.20;;;;;;;;;;5011032;28;20586;-84
2022/06/30 08:43:11;;;;;;;4.97;2.10;;;;;;;;;;4986535;28;20579;-84
2022/06/30 08:45:42;;;;;;;4.55;2.20;;;;;;;;;;5011700;28;20037;-84
2022/06/30 08:48:10;;;;;;;5.55;2.40;;;;;;;;;;5011348;28;20069;-84
2022/06/30 08:51:05;;;;;;;5.18;2.42;;;;;;;;;;5011035;28;20569;-86
2022/06/30 08:54:04;;;;;;;3.88;2.33;;;;;;;;;;5005256;28;20046;-84
2022/06/30 08:57:22;;;;;;;4.82;2.20;;;;;;;;;;5024971;28;20030;-84
2022/06/30 09:00:17;;;;;;;8.45;1.98;;;;;;;;;;5010680;28;20044;-84
2022/06/30 09:02:49;;;;;;;5.88;1.90;;;;;;;;;;5009080;28;20891;-84
2022/06/30 09:05:17;;;;;;;5.28;2.38;;;;;;;;;;5026826;28;20049;-84
2022/06/30 09:08:04;;;;;;;4.80;2.47;;;;;;;;;;4997393;28;20049;-83
2022/06/30 09:10:53;;;;;;;3.08;2.00;;;;;;;;;;5025195;28;20395;-84
2022/06/30 09:13:23;;;;;;;3.70;2.05;;;;;;;;;;5024155;28;20049;-84
2022/06/30 09:15:51;;;;;;;3.00;1.90;;;;;;;;;;5027081;28;20046;-84
2022/06/30 09:18:27;;;;;;;4.50;2.13;;;;;;;;;;5024716;28;20099;-84
2022/06/30 09:20:56;;;;;;;5.15;1.90;;;;;;;;;;4997496;28;20057;-84
2022/06/30 09:23:30;;;;;;;5.88;2.08;;;;;;;;;;5028074;28;20041;-84
2022/06/30 09:26:00;;;;;;;4.80;2.20;;;;;;;;;;5009796;28;20468;-83
2022/06/30 09:28:50;;;;;;;3.85;1.90;;;;;;;;;;5026595;28;20030;-84
2022/06/30 09:31:44;;;;;;;4.97;2.25;;;;;;;;;;5000104;28;20046;-84
2022/06/30 09:34:21;;;;;;;3.53;1.95;;;;;;;;;;5025839;28;20037;-84
2022/06/30 09:36:52;;;;;;;5.82;2.10;;;;;;;;;;5028886;28;20124;-84
2022/06/30 09:39:21;;;;;;;8.45;2.20;;;;;;;;;;5028583;28;20038;-83
2022/06/30 09:41:50;;;;;;;4.00;1.90;;;;;;;;;;5024715;28;20041;-84
2022/06/30 09:44:24;;;;;;;3.35;1.83;;;;;;;;;;5020692;28;20108;-84
2022/06/30 09:47:10;;;;;;;3.58;1.90;;;;;;;;;;4995969;28;20046;-83
2022/06/30 09:49:42;;;;;;;2.97;2.00;;;;;;;;;;4997370;28;20037;-85
2022/06/30 09:52:21;;;;;;;3.55;1.98;;;;;;;;;;5013260;28;20046;-84
2022/06/30 09:55:00;;;;;;;4.60;2.63;;;;;;;;;;4991864;28;20057;-84
2022/06/30 09:58:01;;;;;;;3.92;2.28;;;;;;;;;;4976486;28;20050;-84
2022/06/30 10:00:30;;;;;;;7.20;1.90;;;;;;;;;;5013690;28;20037;-84
2022/06/30 10:03:04;;;;;;;2.85;2.00;;;;;;;;;;5013092;28;20042;-84
2022/06/30 10:05:31;;;;;;;4.15;2.00;;;;;;;;;;5013815;28;20044;-84
2022/06/30 10:08:01;;;;;;;5.85;1.80;;;;;;;;;;5014163;28;20033;-84
2022/06/30 10:10:33;;;;;;;4.65;2.20;;;;;;;;;;5010482;28;20038;-84
2022/06/30 10:13:02;;;;;;;4.88;2.25;;;;;;;;;;4982404;28;20150;-83
2022/06/30 10:15:34;;;;;;;3.83;2.38;;;;;;;;;;5013738;28;20510;-84
2022/06/30 10:18:04;;;;;;;4.10;1.90;;;;;;;;;;5012263;28;20037;-84
2022/06/30 10:20:38;;;;;;;3.30;2.08;;;;;;;;;;4984984;28;20045;-84
2022/06/30 10:23:13;;;;;;;6.65;2.42;;;;;;;;;;5017845;28;20100;-84
2022/06/30 10:25:42;;;;;;;5.50;1.88;;;;;;;;;;5011700;28;20128;-86
2022/06/30 10:28:26;;;;;;;5.05;2.00;;;;;;;;;;4999492;28;20042;-85
2022/06/30 10:31:53;;;;;;;4.43;2.10;;;;;;;;;;4995285;28;20054;-84
2022/06/30 10:35:36;;;;;;;3.65;2.10;;;;;;;;;;5016728;28;20041;-83
2022/06/30 10:38:39;;;;;;;5.38;2.22;;;;;;;;;;5016911;28;20510;-83
2022/06/30 10:41:26;;;;;;;3.38;1.88;;;;;;;;;;5014597;28;20168;-83
2022/06/30 10:44:03;;;;;;;5.20;2.15;;;;;;;;;;5012248;28;20399;-84
2022/06/30 10:46:56;;;;;;;4.28;1.88;;;;;;;;;;5010667;28;20488;-85
2022/06/30 10:49:25;;;;;;;6.07;2.17;;;;;;;;;;4980653;28;20120;-84
2022/06/30 10:52:17;;;;;;;3.75;2.30;;;;;;;;;;5010241;28;20041;-84
2022/06/30 10:54:46;;;;;;;9.73;2.10;;;;;;;;;;5009715;28;20373;-84
2022/06/30 10:57:16;;;;;;;4.32;2.20;;;;;;;;;;5011146;28;20048;-84
2022/06/30 10:59:49;;;;;;;4.43;2.00;;;;;;;;;;5012018;28;20123;-84
2022/06/30 11:02:51;;;;;;;3.67;2.50;;;;;;;;;;5002434;28;20428;-84
2022/06/30 11:05:27;;;;;;;4.68;1.98;;;;;;;;;;5015898;28;20064;-84
2022/06/30 11:08:36;;;;;;;4.03;2.40;;;;;;;;;;5014776;28;20068;-84
2022/06/30 11:11:22;;;;;;;5.35;2.97;;;;;;;;;;5013094;28;20069;-84
2022/06/30 11:14:01;;;;;;;4.95;2.55;;;;;;;;;;5016606;28;20061;-84
2022/06/30 11:16:35;;;;;;;4.30;2.40;;;;;;;;;;5014190;28;20083;-84
2022/06/30 11:19:05;;;;;;;4.70;2.35;;;;;;;;;;5015590;28;20428;-84
2022/06/30 11:21:35;;;;;;;5.60;2.33;;;;;;;;;;5014829;28;20516;-84
2022/06/30 11:24:05;;;;;;;5.35;2.38;;;;;;;;;;5015391;28;20130;-84
2022/06/30 11:29:56;;;;;;;;;;;;;;;;;;5009736;28;20045;-84
2022/06/30 11:32:24;;;;;;;3.85;2.30;;;;;;;;;;4996437;28;19925;-84
2022/06/30 11:34:52;;;;;;;3.90;2.33;;;;;;;;;;5013432;28;20052;-83
2022/06/30 11:37:21;;;;;;;3.92;2.28;;;;;;;;;;4997353;28;20487;-84
2022/06/30 11:40:00;;;;;;;3.65;2.33;;;;;;;;;;5013811;28;20073;-84
2022/06/30 11:42:42;;;;;;;5.78;2.45;;;;;;;;;;5014245;28;20045;-84
2022/06/30 11:45:24;;;;;;;3.08;1.80;;;;;;;;;;4992857;28;20040;-83
2022/06/30 11:48:05;;;;;;;4.50;2.28;;;;;;;;;;5008307;28;20507;-83
2022/06/30 11:50:34;;;;;;;5.20;2.10;;;;;;;;;;5014058;28;20037;-83
2022/06/30 11:53:16;;;;;;;6.32;2.35;;;;;;;;;;5011854;28;20152;-83
2022/06/30 11:55:57;;;;;;;9.82;2.35;;;;;;;;;;4983016;28;20053;-84
2022/06/30 11:58:29;;;;;;;5.45;2.03;;;;;;;;;;5014452;28;20065;-84
2022/06/30 12:01:13;;;;;;;3.80;2.50;;;;;;;;;;4997414;28;20048;-83
2022/06/30 12:04:12;;;;;;;5.57;2.40;;;;;;;;;;4995656;28;20045;-84
2022/06/30 12:07:10;;;;;;;4.63;2.42;;;;;;;;;;5013526;28;20053;-84
2022/06/30 12:09:52;;;;;;;4.47;2.20;;;;;;;;;;4985501;28;20058;-84
2022/06/30 12:12:36;;;;;;;7.20;2.38;;;;;;;;;;4996834;28;20138;-84
2022/06/30 12:15:07;;;;;;;6.22;2.20;;;;;;;;;;5014290;28;20543;-83
2022/06/30 12:17:36;;;;;;;5.03;2.22;;;;;;;;;;5000885;28;20045;-84
2022/06/30 12:20:33;;;;;;;4.93;2.28;;;;;;;;;;4983971;28;20072;-84
2022/06/30 12:23:16;;;;;;;5.00;2.35;;;;;;;;;;4988068;28;20049;-84
2022/06/30 12:26:08;;;;;;;3.67;2.13;;;;;;;;;;5001754;28;20103;-84
2022/06/30 12:29:13;;;;;;;4.18;2.10;;;;;;;;;;4960902;28;20041;-84
2022/06/30 12:32:10;;;;;;;3.58;2.20;;;;;;;;;;4992288;28;20508;-83
2022/06/30 12:34:50;;;;;;;6.25;3.25;;;;;;;;;;5005636;28;20048;-83
2022/06/30 12:37:29;;;;;;;5.75;2.25;;;;;;;;;;4987773;28;20057;-83
2022/06/30 12:40:10;;;;;;;4.25;2.50;;;;;;;;;;5021038;28;20109;-83
2022/06/30 12:42:48;;;;;;;3.33;2.40;;;;;;;;;;5010680;28;20041;-83
2022/06/30 12:45:41;;;;;;;4.50;2.28;;;;;;;;;;5002588;28;20042;-85
2022/06/30 12:48:54;;;;;;;4.53;2.40;;;;;;;;;;4933126;29;20055;-83
2022/06/30 12:51:44;;;;;;;3.80;2.30;;;;;;;;;;4925854;29;20204;-84
2022/06/30 12:55:17;;;;;;;4.90;2.30;;;;;;;;;;4908602;29;20079;-85
2022/06/30 12:58:02;;;;;;;4.85;2.40;;;;;;;;;;4900613;29;20052;-84
2022/06/30 13:00:44;;;;;;;4.20;2.50;;;;;;;;;;4905901;29;20083;-84
2022/06/30 13:04:00;;;;;;;4.03;2.47;;;;;;;;;;4916374;29;20141;-84
2022/06/30 13:06:43;;;;;;;4.90;2.50;;;;;;;;;;4916093;29;20063;-84
2022/06/30 13:09:28;;;;;;;4.63;2.83;;;;;;;;;;4911343;29;20056;-84
2022/06/30 13:13:21;;;;;;;4.18;2.30;;;;;;;;;;4919305;29;20404;-85
2022/06/30 13:16:45;;;;;;;4.15;2.40;;;;;;;;;;4873042;29;20068;-83
2022/06/30 13:19:47;;;;;;;3.92;2.60;;;;;;;;;;4928267;28;20141;-83
2022/06/30 13:22:34;;;;;;;3.80;2.20;;;;;;;;;;4961586;28;20062;-83
2022/06/30 13:25:43;;;;;;;4.47;2.13;;;;;;;;;;4968807;28;20594;-83
2022/06/30 13:29:47;;;;;;;5.35;2.10;;;;;;;;;;4944003;29;20052;-85
2022/06/30 13:34:06;;;;;;;5.35;2.35;;;;;;;;;;4924544;29;20068;-85
2022/06/30 13:36:48;;;;;;;4.15;2.10;;;;;;;;;;4921277;29;20055;-84
2022/06/30 13:41:01;;;;;;;7.32;2.42;;;;;;;;;;4922613;29;20699;-85
2022/06/30 13:44:15;;;;;;;7.40;2.70;;;;;;;;;;4906518;29;20060;-83
2022/06/30 13:47:30;;;;;;;4.18;2.40;;;;;;;;;;4925651;28;20839;-84
2022/06/30 13:51:20;;;;;;;3.80;2.40;;;;;;;;;;4927522;29;20047;-83
2022/06/30 13:54:03;;;;;;;4.97;2.00;;;;;;;;;;4899489;29;20047;-84
2022/06/30 13:56:45;;;;;;;7.05;2.55;;;;;;;;;;4866355;29;20059;-84
2022/06/30 13:59:30;;;;;;;6.45;2.53;;;;;;;;;;4923935;29;20051;-84
2022/06/30 14:02:22;;;;;;;9.23;2.83;;;;;;;;;;4925454;29;20052;-84
2022/06/30 14:05:04;;;;;;;5.93;2.50;;;;;;;;;;4924975;29;20056;-84
2022/06/30 14:07:46;;;;;;;4.88;2.40;;;;;;;;;;4921953;29;20056;-84
2022/06/30 14:10:28;;;;;;;5.85;2.55;;;;;;;;;;4956055;28;20679;-85
2022/06/30 14:13:34;;;;;;;4.07;2.63;;;;;;;;;;4952894;28;20071;-84
2022/06/30 14:16:42;;;;;;;5.32;2.40;;;;;;;;;;4940610;28;20047;-84
2022/06/30 14:20:01;;;;;;;6.20;2.28;;;;;;;;;;4964106;28;20468;-83
2022/06/30 14:23:14;;;;;;;3.58;2.25;;;;;;;;;;4951561;28;20055;-84
2022/06/30 14:25:56;;;;;;;4.55;2.22;;;;;;;;;;4947494;28;20051;-84
2022/06/30 14:29:03;;;;;;;7.50;2.65;;;;;;;;;;4959438;28;20509;-85
2022/06/30 14:32:22;;;;;;;3.90;2.40;;;;;;;;;;4965798;28;20054;-83
2022/06/30 14:35:09;;;;;;;6.97;2.95;;;;;;;;;;4951259;28;20062;-84
2022/06/30 14:37:52;;;;;;;5.35;2.63;;;;;;;;;;4949287;28;20106;-84
2022/06/30 14:41:00;;;;;;;5.25;2.78;;;;;;;;;;4951931;28;20054;-85
2022/06/30 14:43:41;;;;;;;5.78;2.42;;;;;;;;;;4941813;28;20058;-85
2022/06/30 14:46:27;;;;;;;4.45;2.30;;;;;;;;;;4941469;28;20640;-85
2022/06/30 14:49:12;;;;;;;5.75;2.17;;;;;;;;;;4954614;28;20052;-85
2022/06/30 14:51:53;;;;;;;5.30;2.42;;;;;;;;;;4929747;28;20043;-84
2022/06/30 14:54:45;;;;;;;9.05;3.03;;;;;;;;;;4961134;28;20091;-84
2022/06/30 14:58:47;;;;;;;5.25;2.83;;;;;;;;;;4930383;29;20063;-85
2022/06/30 15:01:50;;;;;;;4.47;2.40;;;;;;;;;;4932473;29;20295;-85
2022/06/30 15:04:34;;;;;;;4.43;2.38;;;;;;;;;;4930743;29;20059;-83
2022/06/30 15:07:15;;;;;;;5.03;2.70;;;;;;;;;;4952886;29;20123;-82
2022/06/30 15:15:02;;;;;;;4.95;2.13;;;;;;;;;;4892193;29;20048;-84
2022/06/30 15:19:27;;;;;;;6.30;2.17;;;;;;;;;;4856092;29;20033;-85
2022/06/30 15:24:10;;;;;;;4.88;1.67;;;;;;;;;;4855511;29;20125;-84
2022/06/30 15:28:33;;;;;;;3.33;1.67;;;;;;;;;;4851089;29;20042;-83
2022/06/30 15:31:17;;;;;;;3.58;1.60;;;;;;;;;;4853628;29;20088;-85
2022/06/30 15:34:05;;;;;;;8.57;2.00;;;;;;;;;;4855645;29;20057;-85
2022/06/30 15:36:47;;;;;;;3.45;1.48;;;;;;;;;;4884844;29;20518;-85
2022/06/30 15:39:34;;;;;;;4.20;1.83;;;;;;;;;;4899966;29;20064;-85
2022/06/30 15:42:18;;;;;;;4.63;1.90;;;;;;;;;;4861989;29;20201;-85
2022/06/30 15:45:24;;;;;;;6.00;1.70;;;;;;;;;;4882191;29;20417;-87
2022/06/30 15:49:06;;;;;;;3.58;1.80;;;;;;;;;;4863117;29;20049;-85
2022/06/30 15:55:45;;;;;;;4.80;2.10;;;;;;;;;;4865966;29;20125;-85
2022/06/30 15:59:29;;;;;;;4.03;1.90;;;;;;;;;;4918684;29;20090;-86
2022/06/30 16:03:00;;;;;;;5.05;1.90;;;;;;;;;;4907766;29;20118;-86
2022/06/30 16:06:16;;;;;;;5.15;1.75;;;;;;;;;;4903725;29;20119;-84
2022/06/30 16:09:10;;;;;;;4.15;1.50;;;;;;;;;;4905201;29;20056;-83
2022/06/30 16:11:52;;;;;;;5.25;1.60;;;;;;;;;;4890349;29;20076;-85
2022/06/30 16:14:34;;;;;;;6.03;1.60;;;;;;;;;;4882680;29;20063;-84
2022/06/30 16:17:31;;;;;;;4.90;1.67;;;;;;;;;;4881569;29;20064;-84
2022/06/30 16:20:00;;;;;;;5.10;1.95;;;;;;;;;;4869805;29;20061;-83
2022/06/30 16:22:41;;;;;;;6.82;1.80;;;;;;;;;;4877278;29;20427;-84
2022/06/30 16:26:05;;;;;;;2.63;1.33;;;;;;;;;;4859987;29;20063;-86
2022/06/30 16:28:54;;;;;;;3.25;1.75;;;;;;;;;;4953122;28;20055;-85
2022/06/30 16:31:38;;;;;;;3.80;1.95;;;;;;;;;;4961649;28;20128;-85
2022/06/30 16:35:29;;;;;;;5.22;1.92;;;;;;;;;;4969083;28;20045;-85
2022/06/30 16:39:01;;;;;;;4.25;1.80;;;;;;;;;;4987832;28;20069;-86
2022/06/30 16:43:08;;;;;;;4.68;1.92;;;;;;;;;;4979833;28;20205;-86
2022/06/30 16:46:01;;;;;;;3.20;1.70;;;;;;;;;;4952050;28;20055;-85
2022/06/30 16:49:18;;;;;;;7.57;2.20;;;;;;;;;;4940355;28;20089;-85
2022/06/30 16:52:27;;;;;;;4.85;2.25;;;;;;;;;;4960165;28;20105;-85
2022/06/30 16:55:16;;;;;;;4.65;1.88;;;;;;;;;;4943166;28;20073;-85
2022/06/30 16:58:47;;;;;;;7.25;2.05;;;;;;;;;;4925149;29;20813;-86
2022/06/30 17:01:58;;;;;;;4.50;1.60;;;;;;;;;;4938583;28;20074;-83
2022/06/30 17:04:51;;;;;;;6.03;1.98;;;;;;;;;;4942718;28;20050;-83
2022/06/30 17:07:19;;;;;;;6.43;1.58;;;;;;;;;;4912399;29;20142;-84
2022/06/30 17:10:37;;;;;;;6.43;1.55;;;;;;;;;;4923405;29;20043;-86
2022/06/30 17:19:01;;;;;;;3.75;1.90;;;;;;;;;;4918686;29;20047;-84
2022/06/30 17:21:34;;;;;;;5.47;1.67;;;;;;;;;;4898291;29;20089;-85
2022/06/30 17:25:14;;;;;;;4.82;1.80;;;;;;;;;;4930257;29;20120;-85
2022/06/30 17:28:31;;;;;;;5.28;1.70;;;;;;;;;;4884333;29;20338;-85
2022/06/30 17:31:58;;;;;;;5.28;1.95;;;;;;;;;;4893754;29;20059;-87
2022/06/30 17:35:49;;;;;;;3.00;1.70;;;;;;;;;;4898565;29;20142;-86
2022/06/30 17:39:22;;;;;;;3.53;1.70;;;;;;;;;;4903152;29;20055;-86
2022/06/30 17:43:08;;;;;;;5.60;1.90;;;;;;;;;;4916784;29;21122;-83
2022/06/30 17:45:59;;;;;;;3.90;1.80;;;;;;;;;;4950294;29;20044;-83
2022/06/30 17:48:36;;;;;;;4.18;1.88;;;;;;;;;;4914596;29;20054;-83
2022/06/30 17:51:04;;;;;;;5.15;1.75;;;;;;;;;;4947707;28;20070;-83
2022/06/30 17:54:11;;;;;;;7.43;2.00;;;;;;;;;;4948636;29;20514;-85
2022/06/30 17:57:13;;;;;;;4.03;2.00;;;;;;;;;;4936261;29;20509;-80
2022/06/30 17:59:45;;;;;;;5.07;1.90;;;;;;;;;;4945624;28;20137;-79
2022/06/30 18:02:13;;;;;;;3.63;1.95;;;;;;;;;;4953676;28;20057;-79
2022/06/30 18:04:41;;;;;;;4.28;1.90;;;;;;;;;;4965059;28;20189;-80
2022/06/30 18:12:41;;;;;;;5.03;1.73;;;;;;;;;;4979465;28;20594;-83
2022/06/30 18:15:29;;;;;;;4.18;1.70;;;;;;;;;;4984255;28;20152;-86
2022/06/30 18:19:13;;;;;;;4.70;1.70;;;;;;;;;;4990909;28;20064;-85
2022/06/30 18:21:56;;;;;;;3.35;1.55;;;;;;;;;;5014560;28;20057;-84
2022/06/30 18:24:37;;;;;;;7.97;2.00;;;;;;;;;;5000349;28;20427;-84
2022/06/30 18:28:10;;;;;;;6.05;2.30;;;;;;;;;;5013162;28;20068;-85
2022/06/30 18:32:06;;;;;;;4.82;1.90;;;;;;;;;;5017128;28;20034;-83
2022/06/30 18:35:14;;;;;;;6.00;2.20;;;;;;;;;;4989618;28;20122;-84
2022/06/30 18:38:01;;;;;;;5.25;2.10;;;;;;;;;;4982366;28;20046;-84
2022/06/30 18:40:47;;;;;;;4.97;2.08;;;;;;;;;;4995276;28;20069;-84
2022/06/30 18:43:35;;;;;;;4.68;1.90;;;;;;;;;;4972967;28;20042;-84
2022/06/30 18:46:16;;;;;;;7.32;2.50;;;;;;;;;;5016211;28;20049;-84
2022/06/30 18:48:43;;;;;;;4.18;2.00;;;;;;;;;;5016699;28;20044;-84
2022/06/30 18:51:26;;;;;;;3.33;1.90;;;;;;;;;;4982007;28;20119;-83
2022/06/30 18:54:35;;;;;;;5.15;2.08;;;;;;;;;;5011975;28;20041;-82
2022/06/30 18:57:15;;;;;;;4.97;2.20;;;;;;;;;;4982408;28;20056;-83
2022/06/30 18:59:57;;;;;;;4.78;2.45;;;;;;;;;;4984306;28;20045;-84
2022/06/30 19:02:27;;;;;;;4.88;2.40;;;;;;;;;;5009273;28;20050;-83
2022/06/30 19:05:16;;;;;;;5.53;2.30;;;;;;;;;;5030502;28;20049;-81
2022/06/30 19:07:50;;;;;;;5.10;2.05;;;;;;;;;;5002457;28;20623;-83
2022/06/30 19:10:19;;;;;;;6.03;2.43;;;;;;;;;;5012066;28;20034;-84
2022/06/30 19:13:11;;;;;;;3.85;2.40;;;;;;;;;;5020484;28;20041;-84
2022/06/30 19:16:00;;;;;;;6.90;2.53;;;;;;;;;;5029056;28;20042;-84
2022/06/30 19:18:29;;;;;;;4.40;2.53;;;;;;;;;;5031649;28;20044;-83
2022/06/30 19:20:57;;;;;;;3.80;2.15;;;;;;;;;;5030292;28;20046;-83
2022/06/30 19:23:26;;;;;;;4.70;2.45;;;;;;;;;;5029964;28;20038;-83
2022/06/30 19:26:02;;;;;;;5.80;2.37;;;;;;;;;;5005163;28;20054;-84
2022/06/30 19:28:30;;;;;;;4.50;2.60;;;;;;;;;;5027296;28;20060;-83
2022/06/30 19:30:58;;;;;;;5.57;2.83;;;;;;;;;;5026618;28;20038;-83
2022/06/30 19:33:25;;;;;;;4.78;2.53;;;;;;;;;;5000520;28;20060;-83
2022/06/30 19:35:55;;;;;;;5.78;2.42;;;;;;;;;;5030560;28;20101;-83
2022/06/30 19:38:52;;;;;;;6.78;2.70;;;;;;;;;;5030020;28;20038;-83
2022/06/30 19:41:20;;;;;;;6.57;2.40;;;;;;;;;;4999919;28;20044;-84
2022/06/30 19:44:21;;;;;;;7.18;2.55;;;;;;;;;;5031810;28;20056;-83
2022/06/30 19:46:49;;;;;;;4.30;2.65;;;;;;;;;;5014081;28;20038;-83
2022/06/30 19:49:22;;;;;;;8.35;2.63;;;;;;;;;;4991200;28;20042;-83
2022/06/30 19:51:51;;;;;;;6.50;2.65;;;;;;;;;;5033156;28;20069;-83
2022/06/30 19:54:46;;;;;;;5.30;3.25;;;;;;;;;;5030656;28;20042;-84
2022/06/30 19:57:17;;;;;;;6.88;3.17;;;;;;;;;;5021562;28;20073;-87
2022/06/30 19:59:59;;;;;;;11.18;3.17;;;;;;;;;;5023485;28;20041;-84
2022/06/30 20:05:47;;;;;;;6.72;3.00;;;;;;;;;;5015616;28;20074;-83